sensor_id;sensor_type;location;lat;lon;timestamp;P1;durP1;ratioP1;P2;durP2;ratioP2
65393;SDS011;52002;49.760;6.512;2024-02-28T00:01:51;30.00;;;16.70;;
65393;SDS011;52002;49.760;6.512;2024-02-28T00:04:17;32.60;;;16.50;;
65393;SDS011;52002;49.760;6.512;2024-02-28T00:06:43;27.00;;;16.30;;
65393;SDS011;52002;49.760;6.512;2024-02-28T00:09:09;27.80;;;15.50;;
65393;SDS011;52002;49.760;6.512;2024-02-28T00:11:36;27.40;;;15.50;;
65393;SDS011;52002;49.760;6.512;2024-02-28T00:14:01;26.50;;;15.80;;
65393;SDS011;52002;49.760;6.512;2024-02-28T00:16:27;31.40;;;17.30;;
65393;SDS011;52002;49.760;6.512;2024-02-28T00:18:53;29.60;;;15.00;;
65393;SDS011;52002;49.760;6.512;2024-02-28T00:21:19;32.00;;;16.30;;
65393;SDS011;52002;49.760;6.512;2024-02-28T00:23:44;33.50;;;17.40;;
65393;SDS011;52002;49.760;6.512;2024-02-28T00:26:11;34.40;;;16.30;;
65393;SDS011;52002;49.760;6.512;2024-02-28T00:28:37;27.30;;;15.10;;
65393;SDS011;52002;49.760;6.512;2024-02-28T00:31:02;30.10;;;17.10;;
65393;SDS011;52002;49.760;6.512;2024-02-28T00:33:28;33.30;;;17.50;;
65393;SDS011;52002;49.760;6.512;2024-02-28T00:35:53;34.20;;;19.90;;
65393;SDS011;52002;49.760;6.512;2024-02-28T00:38:19;30.30;;;17.30;;
65393;SDS011;52002;49.760;6.512;2024-02-28T00:40:44;34.40;;;20.30;;
65393;SDS011;52002;49.760;6.512;2024-02-28T00:43:09;34.70;;;19.80;;
65393;SDS011;52002;49.760;6.512;2024-02-28T00:45:35;33.90;;;18.20;;
65393;SDS011;52002;49.760;6.512;2024-02-28T00:48:00;33.20;;;16.60;;
65393;SDS011;52002;49.760;6.512;2024-02-28T00:50:26;33.40;;;17.00;;
65393;SDS011;52002;49.760;6.512;2024-02-28T00:52:51;27.70;;;16.00;;
65393;SDS011;52002;49.760;6.512;2024-02-28T00:55:17;31.30;;;16.60;;
65393;SDS011;52002;49.760;6.512;2024-02-28T00:57:43;30.10;;;16.20;;
65393;SDS011;52002;49.760;6.512;2024-02-28T01:00:09;30.50;;;18.10;;
65393;SDS011;52002;49.760;6.512;2024-02-28T01:02:35;32.70;;;17.20;;
65393;SDS011;52002;49.760;6.512;2024-02-28T01:05:01;31.20;;;17.40;;
65393;SDS011;52002;49.760;6.512;2024-02-28T01:07:26;31.40;;;18.80;;
65393;SDS011;52002;49.760;6.512;2024-02-28T01:09:51;30.00;;;17.30;;
65393;SDS011;52002;49.760;6.512;2024-02-28T01:12:17;32.40;;;17.60;;
65393;SDS011;52002;49.760;6.512;2024-02-28T01:14:43;35.00;;;17.30;;
65393;SDS011;52002;49.760;6.512;2024-02-28T01:17:08;29.40;;;16.50;;
65393;SDS011;52002;49.760;6.512;2024-02-28T01:19:33;31.20;;;17.00;;
65393;SDS011;52002;49.760;6.512;2024-02-28T01:21:59;33.10;;;15.30;;
65393;SDS011;52002;49.760;6.512;2024-02-28T01:24:24;29.40;;;16.00;;
65393;SDS011;52002;49.760;6.512;2024-02-28T01:26:49;35.90;;;18.40;;
65393;SDS011;52002;49.760;6.512;2024-02-28T01:29:15;34.20;;;17.30;;
65393;SDS011;52002;49.760;6.512;2024-02-28T01:31:40;33.80;;;17.80;;
65393;SDS011;52002;49.760;6.512;2024-02-28T01:34:05;35.90;;;19.30;;
65393;SDS011;52002;49.760;6.512;2024-02-28T01:36:31;34.60;;;17.70;;
65393;SDS011;52002;49.760;6.512;2024-02-28T01:38:57;33.60;;;16.30;;
65393;SDS011;52002;49.760;6.512;2024-02-28T01:41:22;29.30;;;17.10;;
65393;SDS011;52002;49.760;6.512;2024-02-28T01:43:47;29.10;;;16.20;;
65393;SDS011;52002;49.760;6.512;2024-02-28T01:46:23;36.90;;;18.40;;
65393;SDS011;52002;49.760;6.512;2024-02-28T01:48:50;30.60;;;17.00;;
65393;SDS011;52002;49.760;6.512;2024-02-28T01:51:17;32.80;;;16.70;;
65393;SDS011;52002;49.760;6.512;2024-02-28T01:53:44;32.40;;;17.30;;
65393;SDS011;52002;49.760;6.512;2024-02-28T01:56:11;32.50;;;17.90;;
65393;SDS011;52002;49.760;6.512;2024-02-28T01:58:39;32.50;;;17.60;;
65393;SDS011;52002;49.760;6.512;2024-02-28T02:01:05;31.40;;;16.90;;
65393;SDS011;52002;49.760;6.512;2024-02-28T02:03:32;29.20;;;16.30;;
65393;SDS011;52002;49.760;6.512;2024-02-28T02:06:00;33.60;;;16.30;;
65393;SDS011;52002;49.760;6.512;2024-02-28T02:08:27;33.10;;;15.70;;
65393;SDS011;52002;49.760;6.512;2024-02-28T02:10:52;31.60;;;16.00;;
65393;SDS011;52002;49.760;6.512;2024-02-28T02:13:18;30.70;;;16.30;;
65393;SDS011;52002;49.760;6.512;2024-02-28T02:15:43;30.40;;;16.60;;
65393;SDS011;52002;49.760;6.512;2024-02-28T02:18:09;34.00;;;16.90;;
65393;SDS011;52002;49.760;6.512;2024-02-28T02:20:34;28.90;;;15.90;;
65393;SDS011;52002;49.760;6.512;2024-02-28T02:23:03;27.90;;;16.20;;
65393;SDS011;52002;49.760;6.512;2024-02-28T02:25:29;30.50;;;16.50;;
65393;SDS011;52002;49.760;6.512;2024-02-28T02:27:55;33.80;;;17.30;;
65393;SDS011;52002;49.760;6.512;2024-02-28T02:30:20;30.00;;;17.10;;
65393;SDS011;52002;49.760;6.512;2024-02-28T02:32:45;33.00;;;16.80;;
65393;SDS011;52002;49.760;6.512;2024-02-28T02:35:11;30.10;;;16.50;;
65393;SDS011;52002;49.760;6.512;2024-02-28T02:37:36;34.20;;;17.60;;
65393;SDS011;52002;49.760;6.512;2024-02-28T02:40:01;30.90;;;17.40;;
65393;SDS011;52002;49.760;6.512;2024-02-28T02:42:27;31.80;;;16.10;;
65393;SDS011;52002;49.760;6.512;2024-02-28T02:44:52;31.60;;;16.50;;
65393;SDS011;52002;49.760;6.512;2024-02-28T02:47:18;32.90;;;18.00;;
65393;SDS011;52002;49.760;6.512;2024-02-28T02:49:43;33.30;;;18.20;;
65393;SDS011;52002;49.760;6.512;2024-02-28T02:52:09;32.20;;;18.00;;
65393;SDS011;52002;49.760;6.512;2024-02-28T02:54:34;37.50;;;18.80;;
65393;SDS011;52002;49.760;6.512;2024-02-28T02:57:00;33.20;;;18.80;;
65393;SDS011;52002;49.760;6.512;2024-02-28T02:59:25;36.90;;;18.60;;
65393;SDS011;52002;49.760;6.512;2024-02-28T03:01:51;32.00;;;17.10;;
65393;SDS011;52002;49.760;6.512;2024-02-28T03:04:16;29.70;;;16.80;;
65393;SDS011;52002;49.760;6.512;2024-02-28T03:06:42;31.00;;;16.60;;
65393;SDS011;52002;49.760;6.512;2024-02-28T03:09:07;29.20;;;16.20;;
65393;SDS011;52002;49.760;6.512;2024-02-28T03:11:33;36.90;;;17.40;;
65393;SDS011;52002;49.760;6.512;2024-02-28T03:14:03;33.40;;;17.10;;
65393;SDS011;52002;49.760;6.512;2024-02-28T03:16:28;33.20;;;16.00;;
65393;SDS011;52002;49.760;6.512;2024-02-28T03:18:54;31.90;;;15.90;;
65393;SDS011;52002;49.760;6.512;2024-02-28T03:21:19;30.50;;;15.70;;
65393;SDS011;52002;49.760;6.512;2024-02-28T03:23:46;34.60;;;16.80;;
65393;SDS011;52002;49.760;6.512;2024-02-28T03:26:11;27.30;;;15.40;;
65393;SDS011;52002;49.760;6.512;2024-02-28T03:28:37;32.70;;;15.80;;
65393;SDS011;52002;49.760;6.512;2024-02-28T03:31:02;29.10;;;15.50;;
65393;SDS011;52002;49.760;6.512;2024-02-28T03:33:28;27.50;;;15.20;;
65393;SDS011;52002;49.760;6.512;2024-02-28T03:35:54;29.80;;;15.00;;
65393;SDS011;52002;49.760;6.512;2024-02-28T03:38:19;33.30;;;15.20;;
65393;SDS011;52002;49.760;6.512;2024-02-28T03:40:45;27.40;;;16.30;;
65393;SDS011;52002;49.760;6.512;2024-02-28T03:43:10;34.90;;;17.80;;
65393;SDS011;52002;49.760;6.512;2024-02-28T03:45:37;30.70;;;16.30;;
65393;SDS011;52002;49.760;6.512;2024-02-28T03:48:06;33.30;;;17.00;;
65393;SDS011;52002;49.760;6.512;2024-02-28T03:50:31;33.60;;;16.30;;
65393;SDS011;52002;49.760;6.512;2024-02-28T03:52:57;39.30;;;17.20;;
65393;SDS011;52002;49.760;6.512;2024-02-28T03:55:22;31.80;;;16.20;;
65393;SDS011;52002;49.760;6.512;2024-02-28T03:57:48;29.60;;;15.80;;
65393;SDS011;52002;49.760;6.512;2024-02-28T04:00:16;30.00;;;15.80;;
65393;SDS011;52002;49.760;6.512;2024-02-28T04:02:42;27.80;;;13.90;;
65393;SDS011;52002;49.760;6.512;2024-02-28T04:05:08;27.50;;;14.90;;
65393;SDS011;52002;49.760;6.512;2024-02-28T04:07:33;29.50;;;15.60;;
65393;SDS011;52002;49.760;6.512;2024-02-28T04:09:59;28.20;;;14.50;;
65393;SDS011;52002;49.760;6.512;2024-02-28T04:12:24;27.10;;;14.70;;
65393;SDS011;52002;49.760;6.512;2024-02-28T04:14:49;32.90;;;16.60;;
65393;SDS011;52002;49.760;6.512;2024-02-28T04:17:15;37.50;;;17.30;;
65393;SDS011;52002;49.760;6.512;2024-02-28T04:19:40;36.30;;;17.20;;
65393;SDS011;52002;49.760;6.512;2024-02-28T04:22:05;30.60;;;16.40;;
65393;SDS011;52002;49.760;6.512;2024-02-28T04:24:31;29.40;;;15.00;;
65393;SDS011;52002;49.760;6.512;2024-02-28T04:26:57;36.20;;;16.90;;
65393;SDS011;52002;49.760;6.512;2024-02-28T04:29:24;27.80;;;14.30;;
65393;SDS011;52002;49.760;6.512;2024-02-28T04:31:50;27.10;;;14.30;;
65393;SDS011;52002;49.760;6.512;2024-02-28T04:34:15;27.30;;;13.90;;
65393;SDS011;52002;49.760;6.512;2024-02-28T04:36:41;29.90;;;15.00;;
65393;SDS011;52002;49.760;6.512;2024-02-28T04:39:06;31.30;;;15.40;;
65393;SDS011;52002;49.760;6.512;2024-02-28T04:41:32;32.40;;;15.20;;
65393;SDS011;52002;49.760;6.512;2024-02-28T04:43:59;30.80;;;15.60;;
65393;SDS011;52002;49.760;6.512;2024-02-28T04:46:24;35.00;;;15.40;;
65393;SDS011;52002;49.760;6.512;2024-02-28T04:48:50;31.70;;;15.40;;
65393;SDS011;52002;49.760;6.512;2024-02-28T04:51:15;29.20;;;14.00;;
65393;SDS011;52002;49.760;6.512;2024-02-28T04:53:42;26.90;;;13.80;;
65393;SDS011;52002;49.760;6.512;2024-02-28T04:56:08;34.10;;;14.40;;
65393;SDS011;52002;49.760;6.512;2024-02-28T04:58:35;25.20;;;13.20;;
65393;SDS011;52002;49.760;6.512;2024-02-28T05:01:01;35.50;;;14.60;;
65393;SDS011;52002;49.760;6.512;2024-02-28T05:03:26;28.60;;;13.20;;
65393;SDS011;52002;49.760;6.512;2024-02-28T05:05:52;30.70;;;15.50;;
65393;SDS011;52002;49.760;6.512;2024-02-28T05:08:19;33.80;;;15.40;;
65393;SDS011;52002;49.760;6.512;2024-02-28T05:10:45;30.20;;;14.20;;
65393;SDS011;52002;49.760;6.512;2024-02-28T05:13:11;31.00;;;14.80;;
65393;SDS011;52002;49.760;6.512;2024-02-28T05:15:36;30.30;;;14.40;;
65393;SDS011;52002;49.760;6.512;2024-02-28T05:18:02;34.90;;;15.80;;
65393;SDS011;52002;49.760;6.512;2024-02-28T05:20:27;30.90;;;15.00;;
65393;SDS011;52002;49.760;6.512;2024-02-28T05:22:53;29.10;;;14.80;;
65393;SDS011;52002;49.760;6.512;2024-02-28T05:25:18;34.10;;;13.60;;
65393;SDS011;52002;49.760;6.512;2024-02-28T05:27:44;26.60;;;13.00;;
65393;SDS011;52002;49.760;6.512;2024-02-28T05:30:09;31.40;;;14.40;;
65393;SDS011;52002;49.760;6.512;2024-02-28T05:32:35;35.30;;;14.60;;
65393;SDS011;52002;49.760;6.512;2024-02-28T05:35:01;32.40;;;15.20;;
65393;SDS011;52002;49.760;6.512;2024-02-28T05:37:26;33.30;;;16.20;;
65393;SDS011;52002;49.760;6.512;2024-02-28T05:39:51;33.10;;;16.20;;
65393;SDS011;52002;49.760;6.512;2024-02-28T05:42:17;32.30;;;15.70;;
65393;SDS011;52002;49.760;6.512;2024-02-28T05:44:47;34.20;;;15.70;;
65393;SDS011;52002;49.760;6.512;2024-02-28T05:47:13;31.70;;;15.00;;
65393;SDS011;52002;49.760;6.512;2024-02-28T05:49:39;29.10;;;14.20;;
65393;SDS011;52002;49.760;6.512;2024-02-28T05:52:04;32.70;;;14.50;;
65393;SDS011;52002;49.760;6.512;2024-02-28T05:54:30;28.20;;;14.00;;
65393;SDS011;52002;49.760;6.512;2024-02-28T05:56:56;34.20;;;15.90;;
65393;SDS011;52002;49.760;6.512;2024-02-28T05:59:21;30.80;;;15.00;;
65393;SDS011;52002;49.760;6.512;2024-02-28T06:01:47;31.70;;;15.70;;
65393;SDS011;52002;49.760;6.512;2024-02-28T06:04:12;31.20;;;14.80;;
65393;SDS011;52002;49.760;6.512;2024-02-28T06:06:38;31.50;;;15.10;;
65393;SDS011;52002;49.760;6.512;2024-02-28T06:09:03;31.90;;;14.60;;
65393;SDS011;52002;49.760;6.512;2024-02-28T06:11:29;32.60;;;15.50;;
65393;SDS011;52002;49.760;6.512;2024-02-28T06:13:54;32.30;;;15.00;;
65393;SDS011;52002;49.760;6.512;2024-02-28T06:16:20;30.80;;;15.50;;
65393;SDS011;52002;49.760;6.512;2024-02-28T06:18:45;30.50;;;15.50;;
65393;SDS011;52002;49.760;6.512;2024-02-28T06:21:12;29.90;;;13.40;;
65393;SDS011;52002;49.760;6.512;2024-02-28T06:23:38;25.50;;;13.30;;
65393;SDS011;52002;49.760;6.512;2024-02-28T06:26:03;31.30;;;14.40;;
65393;SDS011;52002;49.760;6.512;2024-02-28T06:28:29;33.10;;;14.80;;
65393;SDS011;52002;49.760;6.512;2024-02-28T06:30:54;32.40;;;14.00;;
65393;SDS011;52002;49.760;6.512;2024-02-28T06:33:20;27.20;;;14.10;;
65393;SDS011;52002;49.760;6.512;2024-02-28T06:35:45;29.90;;;14.70;;
65393;SDS011;52002;49.760;6.512;2024-02-28T06:38:10;31.00;;;14.10;;
65393;SDS011;52002;49.760;6.512;2024-02-28T06:40:36;30.00;;;14.40;;
65393;SDS011;52002;49.760;6.512;2024-02-28T06:43:02;30.20;;;14.40;;
65393;SDS011;52002;49.760;6.512;2024-02-28T06:45:28;36.40;;;16.10;;
65393;SDS011;52002;49.760;6.512;2024-02-28T06:47:53;31.70;;;15.60;;
65393;SDS011;52002;49.760;6.512;2024-02-28T06:50:19;29.90;;;12.90;;
65393;SDS011;52002;49.760;6.512;2024-02-28T06:52:44;26.40;;;12.70;;
65393;SDS011;52002;49.760;6.512;2024-02-28T06:55:09;29.50;;;13.20;;
65393;SDS011;52002;49.760;6.512;2024-02-28T06:57:39;25.40;;;13.10;;
65393;SDS011;52002;49.760;6.512;2024-02-28T07:00:06;31.60;;;13.10;;
65393;SDS011;52002;49.760;6.512;2024-02-28T07:02:43;25.10;;;13.30;;
65393;SDS011;52002;49.760;6.512;2024-02-28T07:05:09;24.00;;;12.00;;
65393;SDS011;52002;49.760;6.512;2024-02-28T07:07:35;25.00;;;12.30;;
65393;SDS011;52002;49.760;6.512;2024-02-28T07:10:04;26.50;;;12.70;;
65393;SDS011;52002;49.760;6.512;2024-02-28T07:12:30;29.20;;;13.00;;
65393;SDS011;52002;49.760;6.512;2024-02-28T07:14:55;29.90;;;13.40;;
65393;SDS011;52002;49.760;6.512;2024-02-28T07:17:21;35.90;;;13.70;;
65393;SDS011;52002;49.760;6.512;2024-02-28T07:19:47;31.50;;;13.50;;
65393;SDS011;52002;49.760;6.512;2024-02-28T07:22:12;24.80;;;12.60;;
65393;SDS011;52002;49.760;6.512;2024-02-28T07:24:38;28.40;;;12.20;;
65393;SDS011;52002;49.760;6.512;2024-02-28T07:27:04;26.10;;;12.00;;
65393;SDS011;52002;49.760;6.512;2024-02-28T07:29:29;24.10;;;12.20;;
65393;SDS011;52002;49.760;6.512;2024-02-28T07:31:55;30.00;;;12.80;;
65393;SDS011;52002;49.760;6.512;2024-02-28T07:34:20;23.80;;;12.20;;
65393;SDS011;52002;49.760;6.512;2024-02-28T07:36:46;27.00;;;12.80;;
65393;SDS011;52002;49.760;6.512;2024-02-28T07:39:11;24.20;;;12.50;;
65393;SDS011;52002;49.760;6.512;2024-02-28T07:41:40;25.50;;;13.40;;
65393;SDS011;52002;49.760;6.512;2024-02-28T07:44:07;27.10;;;12.90;;
65393;SDS011;52002;49.760;6.512;2024-02-28T07:46:33;27.20;;;13.00;;
65393;SDS011;52002;49.760;6.512;2024-02-28T07:49:00;28.90;;;13.70;;
65393;SDS011;52002;49.760;6.512;2024-02-28T07:51:27;25.00;;;12.30;;
65393;SDS011;52002;49.760;6.512;2024-02-28T07:53:52;26.20;;;12.50;;
65393;SDS011;52002;49.760;6.512;2024-02-28T07:56:18;22.50;;;12.30;;
65393;SDS011;52002;49.760;6.512;2024-02-28T07:58:45;27.90;;;13.50;;
65393;SDS011;52002;49.760;6.512;2024-02-28T08:01:11;24.30;;;12.10;;
65393;SDS011;52002;49.760;6.512;2024-02-28T08:03:36;29.10;;;13.10;;
65393;SDS011;52002;49.760;6.512;2024-02-28T08:06:02;24.60;;;12.80;;
65393;SDS011;52002;49.760;6.512;2024-02-28T08:08:28;27.00;;;12.40;;
65393;SDS011;52002;49.760;6.512;2024-02-28T08:10:54;25.50;;;12.30;;
65393;SDS011;52002;49.760;6.512;2024-02-28T08:13:20;24.70;;;11.40;;
65393;SDS011;52002;49.760;6.512;2024-02-28T08:15:45;24.90;;;11.20;;
65393;SDS011;52002;49.760;6.512;2024-02-28T08:18:11;23.80;;;11.80;;
65393;SDS011;52002;49.760;6.512;2024-02-28T08:20:39;25.00;;;11.50;;
65393;SDS011;52002;49.760;6.512;2024-02-28T08:23:05;26.10;;;12.40;;
65393;SDS011;52002;49.760;6.512;2024-02-28T08:25:30;27.40;;;12.90;;
65393;SDS011;52002;49.760;6.512;2024-02-28T08:27:56;24.50;;;11.90;;
65393;SDS011;52002;49.760;6.512;2024-02-28T08:30:22;25.80;;;12.60;;
65393;SDS011;52002;49.760;6.512;2024-02-28T08:32:47;26.10;;;12.50;;
65393;SDS011;52002;49.760;6.512;2024-02-28T08:35:13;26.00;;;13.40;;
65393;SDS011;52002;49.760;6.512;2024-02-28T08:37:38;29.80;;;14.70;;
65393;SDS011;52002;49.760;6.512;2024-02-28T08:40:04;38.30;;;16.90;;
65393;SDS011;52002;49.760;6.512;2024-02-28T08:42:30;39.00;;;15.30;;
65393;SDS011;52002;49.760;6.512;2024-02-28T08:44:55;31.20;;;13.70;;
65393;SDS011;52002;49.760;6.512;2024-02-28T08:47:24;30.00;;;13.90;;
65393;SDS011;52002;49.760;6.512;2024-02-28T08:49:50;29.20;;;13.80;;
65393;SDS011;52002;49.760;6.512;2024-02-28T08:52:19;35.80;;;14.90;;
65393;SDS011;52002;49.760;6.512;2024-02-28T08:54:45;30.00;;;14.70;;
65393;SDS011;52002;49.760;6.512;2024-02-28T08:57:11;30.20;;;14.20;;
65393;SDS011;52002;49.760;6.512;2024-02-28T08:59:36;30.40;;;13.30;;
65393;SDS011;52002;49.760;6.512;2024-02-28T09:02:02;28.10;;;12.70;;
65393;SDS011;52002;49.760;6.512;2024-02-28T09:04:28;24.10;;;12.60;;
65393;SDS011;52002;49.760;6.512;2024-02-28T09:06:54;26.10;;;12.30;;
65393;SDS011;52002;49.760;6.512;2024-02-28T09:09:19;25.00;;;11.70;;
65393;SDS011;52002;49.760;6.512;2024-02-28T09:11:45;24.80;;;13.00;;
65393;SDS011;52002;49.760;6.512;2024-02-28T09:14:10;29.50;;;13.70;;
65393;SDS011;52002;49.760;6.512;2024-02-28T09:16:36;25.20;;;12.20;;
65393;SDS011;52002;49.760;6.512;2024-02-28T09:19:02;25.50;;;12.20;;
65393;SDS011;52002;49.760;6.512;2024-02-28T09:21:29;22.50;;;11.90;;
65393;SDS011;52002;49.760;6.512;2024-02-28T09:23:54;25.00;;;13.00;;
65393;SDS011;52002;49.760;6.512;2024-02-28T09:26:19;27.40;;;12.60;;
65393;SDS011;52002;49.760;6.512;2024-02-28T09:28:45;22.40;;;11.30;;
65393;SDS011;52002;49.760;6.512;2024-02-28T09:31:10;23.30;;;11.40;;
65393;SDS011;52002;49.760;6.512;2024-02-28T09:33:36;23.60;;;11.70;;
65393;SDS011;52002;49.760;6.512;2024-02-28T09:36:02;23.70;;;11.10;;
65393;SDS011;52002;49.760;6.512;2024-02-28T09:38:29;22.80;;;11.10;;
65393;SDS011;52002;49.760;6.512;2024-02-28T09:40:57;27.30;;;15.80;;
65393;SDS011;52002;49.760;6.512;2024-02-28T09:43:29;20.80;;;11.30;;
65393;SDS011;52002;49.760;6.512;2024-02-28T09:45:58;24.40;;;12.30;;
65393;SDS011;52002;49.760;6.512;2024-02-28T09:48:26;21.50;;;11.90;;
65393;SDS011;52002;49.760;6.512;2024-02-28T09:50:54;23.50;;;11.80;;
65393;SDS011;52002;49.760;6.512;2024-02-28T09:53:21;23.30;;;11.60;;
65393;SDS011;52002;49.760;6.512;2024-02-28T09:55:47;19.90;;;9.90;;
65393;SDS011;52002;49.760;6.512;2024-02-28T09:58:14;16.90;;;9.80;;
65393;SDS011;52002;49.760;6.512;2024-02-28T10:00:41;17.30;;;9.20;;
65393;SDS011;52002;49.760;6.512;2024-02-28T10:03:09;23.30;;;12.20;;
65393;SDS011;52002;49.760;6.512;2024-02-28T10:05:37;25.20;;;13.60;;
65393;SDS011;52002;49.760;6.512;2024-02-28T10:08:04;29.40;;;13.10;;
65393;SDS011;52002;49.760;6.512;2024-02-28T10:10:31;27.10;;;14.30;;
65393;SDS011;52002;49.760;6.512;2024-02-28T10:12:56;34.10;;;15.60;;
65393;SDS011;52002;49.760;6.512;2024-02-28T10:15:23;30.50;;;15.20;;
65393;SDS011;52002;49.760;6.512;2024-02-28T10:17:51;37.20;;;15.90;;
65393;SDS011;52002;49.760;6.512;2024-02-28T10:20:17;32.60;;;15.30;;
65393;SDS011;52002;49.760;6.512;2024-02-28T10:22:42;31.70;;;14.30;;
65393;SDS011;52002;49.760;6.512;2024-02-28T10:25:08;30.40;;;14.60;;
65393;SDS011;52002;49.760;6.512;2024-02-28T10:27:36;29.20;;;15.40;;
65393;SDS011;52002;49.760;6.512;2024-02-28T10:30:02;31.60;;;14.30;;
65393;SDS011;52002;49.760;6.512;2024-02-28T10:32:31;32.40;;;15.40;;
65393;SDS011;52002;49.760;6.512;2024-02-28T10:34:59;29.90;;;15.10;;
65393;SDS011;52002;49.760;6.512;2024-02-28T10:37:25;34.00;;;15.70;;
65393;SDS011;52002;49.760;6.512;2024-02-28T10:39:56;31.20;;;15.40;;
65393;SDS011;52002;49.760;6.512;2024-02-28T10:42:22;31.00;;;14.80;;
65393;SDS011;52002;49.760;6.512;2024-02-28T10:44:51;28.90;;;14.90;;
65393;SDS011;52002;49.760;6.512;2024-02-28T10:47:19;29.80;;;14.40;;
65393;SDS011;52002;49.760;6.512;2024-02-28T10:49:45;25.50;;;13.30;;
65393;SDS011;52002;49.760;6.512;2024-02-28T10:52:10;21.50;;;12.20;;
65393;SDS011;52002;49.760;6.512;2024-02-28T10:54:40;31.40;;;13.20;;
65393;SDS011;52002;49.760;6.512;2024-02-28T10:57:07;23.50;;;12.00;;
65393;SDS011;52002;49.760;6.512;2024-02-28T10:59:36;24.10;;;11.20;;
65393;SDS011;52002;49.760;6.512;2024-02-28T11:02:02;25.80;;;12.50;;
65393;SDS011;52002;49.760;6.512;2024-02-28T11:04:29;24.10;;;12.50;;
65393;SDS011;52002;49.760;6.512;2024-02-28T11:06:55;25.50;;;11.70;;
65393;SDS011;52002;49.760;6.512;2024-02-28T11:09:21;23.90;;;11.50;;
65393;SDS011;52002;49.760;6.512;2024-02-28T11:11:51;24.70;;;11.40;;
65393;SDS011;52002;49.760;6.512;2024-02-28T11:14:17;25.20;;;12.60;;
65393;SDS011;52002;49.760;6.512;2024-02-28T11:16:47;29.00;;;13.30;;
65393;SDS011;52002;49.760;6.512;2024-02-28T11:19:22;24.40;;;11.90;;
65393;SDS011;52002;49.760;6.512;2024-02-28T11:21:53;29.90;;;12.90;;
65393;SDS011;52002;49.760;6.512;2024-02-28T11:24:28;21.70;;;12.10;;
65393;SDS011;52002;49.760;6.512;2024-02-28T11:27:01;23.10;;;11.90;;
65393;SDS011;52002;49.760;6.512;2024-02-28T11:29:31;24.20;;;12.50;;
65393;SDS011;52002;49.760;6.512;2024-02-28T11:31:56;23.50;;;12.30;;
65393;SDS011;52002;49.760;6.512;2024-02-28T11:34:22;21.70;;;11.90;;
65393;SDS011;52002;49.760;6.512;2024-02-28T11:36:48;20.10;;;11.50;;
65393;SDS011;52002;49.760;6.512;2024-02-28T11:39:14;22.60;;;11.70;;
65393;SDS011;52002;49.760;6.512;2024-02-28T11:41:40;24.00;;;12.10;;
65393;SDS011;52002;49.760;6.512;2024-02-28T11:44:06;25.00;;;11.80;;
65393;SDS011;52002;49.760;6.512;2024-02-28T11:46:32;24.30;;;12.40;;
65393;SDS011;52002;49.760;6.512;2024-02-28T11:48:58;22.20;;;12.40;;
65393;SDS011;52002;49.760;6.512;2024-02-28T11:51:24;25.00;;;12.80;;
65393;SDS011;52002;49.760;6.512;2024-02-28T11:53:50;22.40;;;11.60;;
65393;SDS011;52002;49.760;6.512;2024-02-28T11:56:15;24.60;;;12.30;;
65393;SDS011;52002;49.760;6.512;2024-02-28T11:58:52;52.50;;;19.60;;
65393;SDS011;52002;49.760;6.512;2024-02-28T12:01:18;23.10;;;12.00;;
65393;SDS011;52002;49.760;6.512;2024-02-28T12:03:45;26.00;;;12.60;;
65393;SDS011;52002;49.760;6.512;2024-02-28T12:06:13;24.00;;;12.40;;
65393;SDS011;52002;49.760;6.512;2024-02-28T12:08:39;23.60;;;12.70;;
65393;SDS011;52002;49.760;6.512;2024-02-28T12:11:08;20.90;;;11.20;;
65393;SDS011;52002;49.760;6.512;2024-02-28T12:13:35;56.50;;;23.40;;
65393;SDS011;52002;49.760;6.512;2024-02-28T12:16:02;24.10;;;12.10;;
65393;SDS011;52002;49.760;6.512;2024-02-28T12:18:29;20.90;;;11.70;;
65393;SDS011;52002;49.760;6.512;2024-02-28T12:20:54;20.50;;;11.50;;
65393;SDS011;52002;49.760;6.512;2024-02-28T12:23:20;22.30;;;12.70;;
65393;SDS011;52002;49.760;6.512;2024-02-28T12:25:46;34.70;;;17.50;;
65393;SDS011;52002;49.760;6.512;2024-02-28T12:28:11;24.70;;;13.60;;
65393;SDS011;52002;49.760;6.512;2024-02-28T12:30:41;24.20;;;12.70;;
65393;SDS011;52002;49.760;6.512;2024-02-28T12:33:07;20.20;;;12.00;;
65393;SDS011;52002;49.760;6.512;2024-02-28T12:35:33;23.10;;;12.80;;
65393;SDS011;52002;49.760;6.512;2024-02-28T12:37:59;22.40;;;12.50;;
65393;SDS011;52002;49.760;6.512;2024-02-28T12:40:24;23.10;;;12.60;;
65393;SDS011;52002;49.760;6.512;2024-02-28T12:42:50;22.10;;;12.00;;
65393;SDS011;52002;49.760;6.512;2024-02-28T12:45:15;22.90;;;12.20;;
65393;SDS011;52002;49.760;6.512;2024-02-28T12:47:41;25.10;;;14.70;;
65393;SDS011;52002;49.760;6.512;2024-02-28T12:50:06;29.00;;;16.90;;
65393;SDS011;52002;49.760;6.512;2024-02-28T12:52:33;25.60;;;12.50;;
65393;SDS011;52002;49.760;6.512;2024-02-28T12:55:00;28.20;;;15.20;;
65393;SDS011;52002;49.760;6.512;2024-02-28T12:57:25;24.20;;;13.30;;
65393;SDS011;52002;49.760;6.512;2024-02-28T12:59:51;23.20;;;12.60;;
65393;SDS011;52002;49.760;6.512;2024-02-28T13:02:16;23.10;;;12.40;;
65393;SDS011;52002;49.760;6.512;2024-02-28T13:04:44;24.80;;;13.00;;
65393;SDS011;52002;49.760;6.512;2024-02-28T13:07:10;24.10;;;12.80;;
65393;SDS011;52002;49.760;6.512;2024-02-28T13:09:36;20.10;;;11.40;;
65393;SDS011;52002;49.760;6.512;2024-02-28T13:12:03;25.60;;;11.90;;
65393;SDS011;52002;49.760;6.512;2024-02-28T13:14:29;22.10;;;11.90;;
65393;SDS011;52002;49.760;6.512;2024-02-28T13:16:55;22.40;;;12.00;;
65393;SDS011;52002;49.760;6.512;2024-02-28T13:19:20;24.60;;;13.00;;
65393;SDS011;52002;49.760;6.512;2024-02-28T13:21:45;39.00;;;21.70;;
65393;SDS011;52002;49.760;6.512;2024-02-28T13:24:11;26.10;;;13.40;;
65393;SDS011;52002;49.760;6.512;2024-02-28T13:26:38;27.10;;;14.40;;
65393;SDS011;52002;49.760;6.512;2024-02-28T13:29:03;24.00;;;12.80;;
65393;SDS011;52002;49.760;6.512;2024-02-28T13:31:28;25.30;;;13.30;;
65393;SDS011;52002;49.760;6.512;2024-02-28T13:33:54;28.40;;;13.50;;
65393;SDS011;52002;49.760;6.512;2024-02-28T13:36:19;23.10;;;12.90;;
65393;SDS011;52002;49.760;6.512;2024-02-28T13:38:45;26.20;;;13.70;;
65393;SDS011;52002;49.760;6.512;2024-02-28T13:41:10;25.60;;;13.40;;
65393;SDS011;52002;49.760;6.512;2024-02-28T13:43:36;24.80;;;13.60;;
65393;SDS011;52002;49.760;6.512;2024-02-28T13:46:01;26.10;;;13.50;;
65393;SDS011;52002;49.760;6.512;2024-02-28T13:48:27;27.90;;;13.30;;
65393;SDS011;52002;49.760;6.512;2024-02-28T13:50:59;23.90;;;12.60;;
65393;SDS011;52002;49.760;6.512;2024-02-28T13:53:24;24.70;;;13.10;;
65393;SDS011;52002;49.760;6.512;2024-02-28T13:55:50;22.80;;;12.20;;
65393;SDS011;52002;49.760;6.512;2024-02-28T13:58:16;24.70;;;12.10;;
65393;SDS011;52002;49.760;6.512;2024-02-28T14:00:45;26.30;;;12.10;;
65393;SDS011;52002;49.760;6.512;2024-02-28T14:03:15;24.80;;;12.80;;
65393;SDS011;52002;49.760;6.512;2024-02-28T14:05:40;26.30;;;13.10;;
65393;SDS011;52002;49.760;6.512;2024-02-28T14:08:06;26.20;;;12.90;;
65393;SDS011;52002;49.760;6.512;2024-02-28T14:10:36;27.70;;;13.40;;
65393;SDS011;52002;49.760;6.512;2024-02-28T14:13:02;24.00;;;12.90;;
65393;SDS011;52002;49.760;6.512;2024-02-28T14:15:28;27.80;;;12.40;;